createdAt,value
2022-07-27T00:01:17.167Z,16.00
2022-07-27T00:03:48.592Z,16.00
2022-07-27T00:06:26.263Z,16.00
2022-07-27T00:09:15.421Z,16.00
2022-07-27T00:11:50.953Z,16.00
2022-07-27T00:14:21.140Z,15.90
2022-07-27T00:16:54.732Z,15.90
2022-07-27T00:19:27.902Z,15.90
2022-07-27T00:22:05.744Z,15.80
2022-07-27T00:24:39.125Z,15.80
2022-07-27T00:27:12.722Z,15.80
2022-07-27T00:29:48.297Z,15.80
2022-07-27T00:32:22.776Z,15.80
2022-07-27T00:34:50.775Z,15.70
2022-07-27T00:37:21.967Z,15.70
2022-07-27T00:40:05.128Z,15.70
2022-07-27T00:42:32.210Z,15.70
2022-07-27T00:45:08.815Z,15.70
2022-07-27T00:47:59.647Z,15.70
2022-07-27T00:50:35.899Z,15.60
2022-07-27T00:53:08.915Z,15.60
2022-07-27T00:56:00.048Z,15.60
2022-07-27T00:58:36.790Z,15.60
2022-07-27T01:01:15.789Z,15.60
2022-07-27T01:03:54.963Z,15.60
2022-07-27T01:06:27.045Z,15.60
2022-07-27T01:09:21.745Z,15.60
2022-07-27T01:11:53.395Z,15.60
2022-07-27T01:14:21.942Z,15.60
2022-07-27T01:17:26.716Z,15.60
2022-07-27T01:22:44.318Z,15.60
2022-07-27T01:28:05.906Z,15.60
2022-07-27T01:30:43.036Z,15.50
2022-07-27T01:33:17.788Z,15.50
2022-07-27T01:36:01.015Z,15.50
2022-07-27T01:38:32.118Z,15.50
2022-07-27T01:40:59.489Z,15.50
2022-07-27T01:43:26.549Z,15.50
2022-07-27T01:45:53.693Z,15.50
2022-07-27T01:48:21.049Z,15.50
2022-07-27T01:50:48.217Z,15.50
2022-07-27T01:53:15.331Z,15.50
2022-07-27T01:55:42.268Z,15.50
2022-07-27T01:58:09.513Z,15.40
2022-07-27T02:00:37.234Z,15.40
2022-07-27T02:03:05.486Z,15.40
2022-07-27T02:05:33.851Z,15.40
2022-07-27T02:08:01.022Z,15.40
2022-07-27T02:10:29.538Z,15.40
2022-07-27T02:12:56.490Z,15.40
2022-07-27T02:15:25.180Z,15.40
2022-07-27T02:17:54.396Z,15.40
2022-07-27T02:20:25.964Z,15.40
2022-07-27T02:22:53.011Z,15.40
2022-07-27T02:25:21.169Z,15.40
2022-07-27T02:27:48.340Z,15.40
2022-07-27T02:30:17.852Z,15.40
2022-07-27T02:32:45.084Z,15.40
2022-07-27T02:35:18.365Z,15.30
2022-07-27T02:37:47.697Z,15.30
2022-07-27T02:40:17.443Z,15.30
2022-07-27T02:42:45.001Z,15.30
2022-07-27T02:45:11.986Z,15.20
2022-07-27T02:47:40.201Z,15.20
2022-07-27T02:50:08.468Z,15.20
2022-07-27T02:52:35.900Z,15.20
2022-07-27T02:55:04.815Z,15.20
2022-07-27T02:57:34.387Z,15.20
2022-07-27T03:00:05.540Z,15.10
2022-07-27T03:02:32.518Z,15.10
2022-07-27T03:04:59.397Z,15.10
2022-07-27T03:07:26.796Z,15.10
2022-07-27T03:09:53.870Z,15.00
2022-07-27T03:12:20.937Z,15.10
2022-07-27T03:14:48.351Z,15.00
2022-07-27T03:17:15.317Z,15.00
2022-07-27T03:19:43.330Z,14.90
2022-07-27T03:22:10.302Z,14.90
2022-07-27T03:24:37.157Z,14.90
2022-07-27T03:27:04.193Z,14.90
2022-07-27T03:29:31.166Z,14.80
2022-07-27T03:31:58.194Z,14.80
2022-07-27T03:34:25.140Z,14.80
2022-07-27T03:36:52.576Z,14.70
2022-07-27T03:39:21.112Z,14.70
2022-07-27T03:41:48.087Z,14.70
2022-07-27T03:44:15.576Z,14.70
2022-07-27T03:46:42.439Z,14.60
2022-07-27T03:49:14.065Z,14.60
2022-07-27T03:51:42.338Z,14.60
2022-07-27T03:54:10.461Z,14.50
2022-07-27T03:56:38.792Z,14.50
2022-07-27T03:59:06.242Z,14.50
2022-07-27T04:01:33.243Z,14.50
2022-07-27T04:04:00.159Z,14.50
2022-07-27T04:06:28.623Z,14.50
2022-07-27T04:08:59.655Z,14.40
2022-07-27T04:11:37.761Z,14.40
2022-07-27T04:14:12.964Z,14.40
2022-07-27T04:16:41.465Z,14.30
2022-07-27T04:19:09.736Z,14.30
2022-07-27T04:21:37.953Z,14.30
2022-07-27T04:24:05.398Z,14.30
2022-07-27T04:26:33.758Z,14.30
2022-07-27T04:29:00.701Z,14.20
2022-07-27T04:31:31.453Z,14.20
2022-07-27T04:33:59.188Z,14.20
2022-07-27T04:36:26.096Z,14.20
2022-07-27T04:38:55.154Z,14.20
2022-07-27T04:41:22.689Z,14.20
2022-07-27T04:44:00.472Z,14.10
2022-07-27T04:46:29.897Z,14.10
2022-07-27T04:49:03.146Z,14.10
2022-07-27T04:51:34.528Z,14.10
2022-07-27T04:54:02.305Z,14.10
2022-07-27T04:56:29.323Z,14.10
2022-07-27T04:58:56.380Z,14.10
2022-07-27T05:01:23.673Z,14.10
2022-07-27T05:03:50.877Z,14.10
2022-07-27T05:06:17.888Z,14.10
2022-07-27T05:08:46.427Z,14.10
2022-07-27T05:11:13.324Z,14.10
2022-07-27T05:13:40.688Z,14.10
2022-07-27T05:16:09.415Z,14.20
2022-07-27T05:18:39.764Z,14.10
2022-07-27T05:21:07.915Z,14.20
2022-07-27T05:23:35.614Z,14.20
2022-07-27T05:26:03.104Z,14.20
2022-07-27T05:28:31.377Z,14.20
2022-07-27T05:30:59.190Z,14.10
2022-07-27T05:33:26.188Z,14.20
2022-07-27T05:35:53.332Z,14.20
2022-07-27T05:38:21.415Z,14.10
2022-07-27T05:40:49.490Z,14.20
2022-07-27T05:43:20.608Z,14.20
2022-07-27T05:45:47.723Z,14.10
2022-07-27T05:48:15.224Z,14.10
2022-07-27T05:50:42.202Z,14.10
2022-07-27T05:53:09.179Z,14.10
2022-07-27T05:55:36.283Z,14.10
2022-07-27T05:58:03.205Z,14.10
2022-07-27T06:00:30.359Z,14.10
2022-07-27T06:02:57.283Z,14.10
2022-07-27T06:05:24.226Z,14.10
2022-07-27T06:08:00.539Z,14.10
2022-07-27T06:10:32.422Z,14.10
2022-07-27T06:12:59.746Z,14.10
2022-07-27T06:15:27.813Z,14.10
2022-07-27T06:17:55.315Z,14.10
2022-07-27T06:20:24.309Z,14.20
2022-07-27T06:22:53.034Z,14.20
2022-07-27T06:25:21.736Z,14.20
2022-07-27T06:27:49.531Z,14.30
2022-07-27T06:30:18.474Z,14.30
2022-07-27T06:32:47.099Z,14.40
2022-07-27T06:35:14.102Z,14.40
2022-07-27T06:37:44.583Z,14.50
2022-07-27T06:40:14.980Z,14.50
2022-07-27T06:42:42.003Z,14.60
2022-07-27T06:45:10.463Z,14.70
2022-07-27T06:47:49.415Z,14.80
2022-07-27T06:50:18.254Z,14.80
2022-07-27T06:52:45.191Z,14.90
2022-07-27T06:55:12.831Z,15.00
2022-07-27T06:57:42.969Z,15.00
2022-07-27T07:00:10.702Z,15.00
2022-07-27T07:02:38.585Z,15.10
2022-07-27T07:05:05.809Z,15.20
2022-07-27T07:07:32.752Z,15.20
2022-07-27T07:09:59.813Z,15.20
2022-07-27T07:12:28.417Z,15.30
2022-07-27T07:14:56.482Z,15.30
2022-07-27T07:17:24.466Z,15.30
2022-07-27T07:19:51.381Z,15.40
2022-07-27T07:22:18.400Z,15.50
2022-07-27T07:24:46.267Z,15.50
2022-07-27T07:27:13.649Z,15.60
2022-07-27T07:29:40.720Z,15.70
2022-07-27T07:32:08.886Z,15.80
2022-07-27T07:34:36.551Z,15.90
2022-07-27T07:37:04.448Z,16.00
2022-07-27T07:39:31.780Z,16.00
2022-07-27T07:41:59.216Z,16.10
2022-07-27T07:44:26.382Z,16.10
2022-07-27T07:46:53.627Z,16.10
2022-07-27T07:49:37.812Z,16.20
2022-07-27T07:52:08.145Z,16.20
2022-07-27T07:54:36.712Z,16.20
2022-07-27T07:57:03.729Z,16.20
2022-07-27T07:59:31.291Z,16.20
2022-07-27T08:01:58.568Z,16.20
2022-07-27T08:04:29.840Z,16.20
2022-07-27T08:06:56.825Z,16.20
2022-07-27T08:09:27.032Z,16.20
2022-07-27T08:11:56.418Z,16.20
2022-07-27T08:14:26.527Z,16.20
2022-07-27T08:16:53.518Z,16.20
2022-07-27T08:19:20.558Z,16.20
2022-07-27T08:21:50.560Z,16.30
2022-07-27T08:24:17.725Z,16.30
2022-07-27T08:26:45.174Z,16.30
2022-07-27T08:29:14.284Z,16.40
2022-07-27T08:31:52.465Z,16.40
2022-07-27T08:34:20.382Z,16.40
2022-07-27T08:36:48.863Z,16.40
2022-07-27T08:39:52.688Z,16.50
2022-07-27T08:42:04.600Z,16.50
2022-07-27T08:44:31.906Z,16.60
2022-07-27T08:47:01.553Z,16.70
2022-07-27T08:49:42.511Z,16.80
2022-07-27T08:52:11.750Z,16.90
2022-07-27T08:54:40.515Z,16.90
2022-07-27T08:57:10.797Z,17.10
2022-07-27T08:59:38.146Z,17.20
2022-07-27T09:02:09.306Z,17.30
2022-07-27T09:04:36.622Z,17.40
2022-07-27T09:07:03.874Z,17.50
2022-07-27T09:09:43.087Z,17.70
2022-07-27T09:12:10.781Z,17.80
2022-07-27T09:14:39.443Z,17.90
2022-07-27T09:20:19.337Z,18.10
2022-07-27T09:22:52.306Z,18.20
2022-07-27T09:25:38.357Z,18.30
2022-07-27T09:28:08.990Z,18.50
2022-07-27T09:30:41.520Z,18.60
2022-07-27T09:33:09.231Z,18.70
2022-07-27T09:35:36.212Z,18.90
2022-07-27T09:38:22.472Z,19.10
2022-07-27T09:40:59.807Z,19.30
2022-07-27T09:44:28.373Z,19.50
2022-07-27T09:46:16.458Z,19.60
2022-07-27T09:48:44.401Z,19.80
2022-07-27T09:51:57.567Z,20.00
2022-07-27T09:54:06.126Z,20.20
2022-07-27T09:56:33.337Z,20.50
2022-07-27T09:59:02.965Z,20.90
2022-07-27T10:01:33.444Z,21.00
2022-07-27T10:04:05.032Z,21.10
2022-07-27T10:06:47.777Z,21.40
2022-07-27T10:09:20.144Z,21.80
2022-07-27T10:11:50.694Z,22.20
2022-07-27T10:14:18.725Z,22.50
2022-07-27T10:16:49.729Z,22.80
2022-07-27T10:19:24.718Z,23.30
2022-07-27T10:21:52.655Z,23.70
2022-07-27T10:24:33.923Z,24.10
2022-07-27T10:27:18.738Z,24.50
2022-07-27T10:29:47.699Z,24.60
2022-07-27T10:32:22.639Z,24.90
2022-07-27T10:34:49.764Z,25.20
2022-07-27T10:37:24.129Z,25.40
2022-07-27T10:39:52.259Z,25.70
2022-07-27T10:42:25.672Z,25.90
2022-07-27T10:44:53.671Z,26.20
2022-07-27T10:47:42.118Z,26.50
2022-07-27T10:50:18.440Z,26.90
2022-07-27T10:52:53.090Z,27.10
2022-07-27T10:55:33.028Z,27.40
2022-07-27T10:58:04.278Z,27.50
2022-07-27T11:00:53.989Z,27.60
2022-07-27T11:03:23.417Z,27.70
2022-07-27T11:06:02.060Z,27.80
2022-07-27T11:08:47.032Z,27.80
2022-07-27T11:11:15.965Z,27.80
2022-07-27T11:13:43.778Z,27.90
2022-07-27T11:16:23.936Z,28.00
2022-07-27T11:18:53.854Z,28.20
2022-07-27T11:21:26.814Z,28.40
2022-07-27T11:23:54.035Z,28.50
2022-07-27T11:26:22.790Z,28.70
2022-07-27T11:28:51.655Z,28.70
2022-07-27T11:31:38.232Z,28.60
2022-07-27T11:34:07.048Z,28.40
2022-07-27T11:36:45.212Z,28.30
2022-07-27T11:39:15.162Z,28.50
2022-07-27T11:42:08.786Z,28.80
2022-07-27T11:44:30.649Z,29.00
2022-07-27T11:47:01.671Z,29.00
2022-07-27T11:49:31.310Z,29.10
2022-07-27T11:52:00.340Z,29.30
2022-07-27T11:54:31.605Z,29.50
2022-07-27T11:56:58.524Z,29.70
2022-07-27T11:59:30.072Z,29.90
2022-07-27T12:02:02.246Z,29.90
2022-07-27T12:04:30.773Z,30.00
2022-07-27T12:06:59.914Z,30.10
2022-07-27T12:09:27.397Z,30.00
2022-07-27T12:12:15.877Z,30.00
2022-07-27T12:14:48.893Z,30.10
2022-07-27T12:17:19.205Z,30.20
2022-07-27T12:20:15.780Z,30.20
2022-07-27T12:22:46.792Z,30.10
2022-07-27T12:25:16.602Z,29.80
2022-07-27T12:28:22.355Z,29.50
2022-07-27T12:30:50.664Z,29.30
2022-07-27T12:33:28.221Z,29.20
2022-07-27T12:35:55.602Z,29.10
2022-07-27T12:38:23.968Z,29.00
2022-07-27T12:41:00.811Z,29.00
2022-07-27T12:43:28.598Z,29.00
2022-07-27T12:45:56.295Z,29.00
2022-07-27T12:48:24.954Z,29.00
2022-07-27T12:50:59.838Z,29.00
2022-07-27T12:53:26.942Z,28.90
2022-07-27T12:55:58.677Z,28.70
2022-07-27T12:58:26.327Z,28.60
2022-07-27T13:00:55.136Z,28.40
2022-07-27T13:03:22.829Z,28.30
2022-07-27T13:05:50.837Z,28.20
2022-07-27T13:08:19.563Z,28.10
2022-07-27T13:10:48.067Z,28.10
2022-07-27T13:13:15.526Z,28.10
2022-07-27T13:15:42.794Z,28.00
2022-07-27T13:18:09.957Z,28.00
2022-07-27T13:20:37.179Z,28.10
2022-07-27T13:23:06.944Z,28.10
2022-07-27T13:25:33.906Z,28.30
2022-07-27T13:28:04.277Z,28.50
2022-07-27T13:30:32.534Z,28.70
2022-07-27T13:33:00.898Z,28.80
2022-07-27T13:35:28.466Z,28.80
2022-07-27T13:37:55.876Z,28.70
2022-07-27T13:40:22.803Z,28.50
2022-07-27T13:42:49.793Z,28.40
2022-07-27T13:45:16.852Z,28.20
2022-07-27T13:47:43.698Z,27.90
2022-07-27T13:50:17.712Z,27.70
2022-07-27T13:52:46.433Z,27.50
2022-07-27T13:55:14.663Z,27.30
2022-07-27T13:57:41.831Z,27.20
2022-07-27T14:00:09.035Z,27.10
2022-07-27T14:02:36.116Z,27.00
2022-07-27T14:05:04.380Z,26.90
2022-07-27T14:07:33.399Z,26.90
2022-07-27T14:10:19.026Z,26.80
2022-07-27T14:12:46.079Z,26.60
2022-07-27T14:15:13.830Z,26.40
2022-07-27T14:17:40.792Z,26.20
2022-07-27T14:20:09.244Z,26.00
2022-07-27T14:22:36.290Z,25.90
2022-07-27T14:25:04.439Z,25.70
2022-07-27T14:27:36.101Z,25.50
2022-07-27T14:30:06.977Z,25.40
2022-07-27T14:32:34.449Z,25.30
2022-07-27T14:35:02.479Z,25.20
2022-07-27T14:37:30.056Z,25.10
2022-07-27T14:39:58.521Z,25.00
2022-07-27T14:42:26.022Z,24.90
2022-07-27T14:44:53.249Z,24.80
2022-07-27T14:47:20.194Z,24.70
2022-07-27T14:49:47.181Z,24.70
2022-07-27T14:52:15.559Z,24.70
2022-07-27T14:54:43.561Z,24.70
2022-07-27T14:57:11.072Z,24.60
2022-07-27T14:59:39.423Z,24.60
2022-07-27T15:02:09.095Z,24.60
2022-07-27T15:04:36.332Z,24.50
2022-07-27T15:07:03.358Z,24.50
2022-07-27T15:09:31.405Z,24.40
2022-07-27T15:11:59.291Z,24.40
2022-07-27T15:14:26.952Z,24.30
2022-07-27T15:16:54.428Z,24.30
2022-07-27T15:19:22.678Z,24.30
2022-07-27T15:21:50.016Z,24.30
2022-07-27T15:24:17.118Z,24.20
2022-07-27T15:26:44.987Z,24.20
2022-07-27T15:29:14.725Z,24.20
2022-07-27T15:31:43.097Z,24.10
2022-07-27T15:34:11.721Z,24.10
2022-07-27T15:36:44.649Z,24.10
2022-07-27T15:39:14.849Z,24.10
2022-07-27T15:41:42.075Z,24.00
2022-07-27T15:44:09.004Z,24.00
2022-07-27T15:46:35.998Z,23.90
2022-07-27T15:49:04.391Z,23.90
2022-07-27T15:51:32.738Z,23.90
2022-07-27T15:54:01.231Z,23.90
2022-07-27T15:56:28.094Z,23.90
2022-07-27T15:58:56.170Z,23.90
2022-07-27T16:01:23.198Z,23.80
2022-07-27T16:04:02.751Z,23.70
2022-07-27T16:06:31.966Z,23.70
2022-07-27T16:09:01.207Z,23.60
2022-07-27T16:11:28.080Z,23.60
2022-07-27T16:13:55.190Z,23.60
2022-07-27T16:16:29.997Z,23.50
2022-07-27T16:19:13.039Z,23.60
2022-07-27T16:21:54.387Z,23.50
2022-07-27T16:24:23.338Z,23.50
2022-07-27T16:26:50.261Z,23.40
2022-07-27T16:29:18.320Z,23.30
2022-07-27T16:31:46.131Z,23.30
2022-07-27T16:34:14.282Z,23.30
2022-07-27T16:36:41.209Z,23.30
2022-07-27T16:39:13.800Z,23.30
2022-07-27T16:41:41.043Z,23.30
2022-07-27T16:44:09.031Z,23.30
2022-07-27T16:46:36.119Z,23.30
2022-07-27T16:49:03.554Z,23.30
2022-07-27T16:51:30.978Z,23.20
2022-07-27T16:53:58.306Z,23.20
2022-07-27T16:56:25.337Z,23.20
2022-07-27T16:58:52.412Z,23.10
2022-07-27T17:01:22.415Z,23.10
2022-07-27T17:03:57.783Z,23.10
2022-07-27T17:06:26.436Z,23.10
2022-07-27T17:08:54.744Z,23.00
2022-07-27T17:11:24.824Z,23.00
2022-07-27T17:13:58.962Z,22.90
2022-07-27T17:16:33.053Z,22.90
2022-07-27T17:19:04.650Z,22.90
2022-07-27T17:21:32.135Z,22.80
2022-07-27T17:23:59.143Z,22.80
2022-07-27T17:26:26.477Z,22.70
2022-07-27T17:28:53.536Z,22.70
2022-07-27T17:31:21.474Z,22.70
2022-07-27T17:33:48.578Z,22.70
2022-07-27T17:36:15.856Z,22.70
2022-07-27T17:38:44.727Z,22.60
2022-07-27T17:41:13.633Z,22.50
2022-07-27T17:43:40.647Z,22.50
2022-07-27T17:46:10.503Z,22.40
2022-07-27T17:48:39.017Z,22.40
2022-07-27T17:51:08.569Z,22.40
2022-07-27T17:53:35.492Z,22.30
2022-07-27T17:56:05.205Z,22.20
2022-07-27T17:58:39.529Z,22.20
2022-07-27T18:01:07.198Z,22.10
2022-07-27T18:03:35.022Z,22.10
2022-07-27T18:06:03.238Z,22.10
2022-07-27T18:08:30.192Z,22.00
2022-07-27T18:10:57.231Z,22.00
2022-07-27T18:13:37.992Z,21.90
2022-07-27T18:16:10.577Z,21.90
2022-07-27T18:18:38.149Z,21.80
2022-07-27T18:21:06.449Z,21.80
2022-07-27T18:23:35.722Z,21.70
2022-07-27T18:26:02.671Z,21.60
2022-07-27T18:28:33.415Z,21.70
2022-07-27T18:31:10.050Z,21.60
2022-07-27T18:33:37.997Z,21.50
2022-07-27T18:36:07.586Z,21.50
2022-07-27T18:38:34.594Z,21.40
2022-07-27T18:41:01.490Z,21.40
2022-07-27T18:43:31.094Z,21.30
2022-07-27T18:46:00.250Z,21.30
2022-07-27T18:48:29.559Z,21.30
2022-07-27T18:50:56.634Z,21.30
2022-07-27T18:53:27.956Z,21.30
2022-07-27T18:55:56.788Z,21.20
2022-07-27T18:58:24.924Z,21.20
2022-07-27T19:00:52.250Z,21.20
2022-07-27T19:03:22.457Z,21.20
2022-07-27T19:05:52.851Z,21.10
2022-07-27T19:08:20.596Z,21.10
2022-07-27T19:10:47.555Z,21.10
2022-07-27T19:13:15.590Z,21.10
2022-07-27T19:15:42.589Z,21.10
2022-07-27T19:18:11.089Z,21.00
2022-07-27T19:20:38.405Z,20.90
2022-07-27T19:23:08.387Z,20.90
2022-07-27T19:25:40.688Z,20.80
2022-07-27T19:28:07.803Z,20.80
2022-07-27T19:30:35.092Z,20.80
2022-07-27T19:33:02.240Z,20.70
2022-07-27T19:35:29.568Z,20.60
2022-07-27T19:37:57.872Z,20.60
2022-07-27T19:43:12.977Z,20.50
2022-07-27T19:45:40.734Z,20.50
2022-07-27T19:48:08.341Z,20.40
2022-07-27T19:50:35.435Z,20.40
2022-07-27T19:53:02.769Z,20.40
2022-07-27T19:55:30.639Z,20.30
2022-07-27T19:57:57.867Z,20.30
2022-07-27T20:00:29.221Z,20.20
2022-07-27T20:02:58.673Z,20.20
2022-07-27T20:05:25.610Z,20.20
2022-07-27T20:07:52.851Z,20.20
2022-07-27T20:10:21.896Z,20.10
2022-07-27T20:12:52.984Z,20.10
2022-07-27T20:15:27.223Z,20.00
2022-07-27T20:17:54.252Z,20.00
2022-07-27T20:20:21.433Z,20.00
2022-07-27T20:22:49.286Z,19.90
2022-07-27T20:25:19.217Z,19.90
2022-07-27T20:27:48.897Z,19.80
2022-07-27T20:30:22.496Z,19.80
2022-07-27T20:32:52.379Z,19.70
2022-07-27T20:35:19.511Z,19.70
2022-07-27T20:37:47.364Z,19.60
2022-07-27T20:40:15.079Z,19.60
2022-07-27T20:42:43.543Z,19.60
2022-07-27T20:45:13.542Z,19.50
2022-07-27T20:47:43.273Z,19.50
2022-07-27T20:50:15.282Z,19.50
2022-07-27T20:52:42.387Z,19.50
2022-07-27T20:55:12.603Z,19.50
2022-07-27T20:57:40.608Z,19.40
2022-07-27T21:00:09.564Z,19.40
2022-07-27T21:02:38.110Z,19.30
2022-07-27T21:05:06.294Z,19.40
2022-07-27T21:07:33.530Z,19.30
2022-07-27T21:10:00.411Z,19.30
2022-07-27T21:12:27.872Z,19.30
2022-07-27T21:14:54.802Z,19.30
2022-07-27T21:17:23.585Z,19.20
2022-07-27T21:19:50.498Z,19.20
2022-07-27T21:22:17.446Z,19.20
2022-07-27T21:24:44.329Z,19.20
2022-07-27T21:27:13.613Z,19.20
2022-07-27T21:29:40.496Z,19.20
2022-07-27T21:32:07.662Z,19.20
2022-07-27T21:34:34.663Z,19.10
2022-07-27T21:37:01.742Z,19.10
2022-07-27T21:39:29.004Z,19.10
2022-07-27T21:42:01.423Z,19.10
2022-07-27T21:44:29.920Z,19.10
2022-07-27T21:46:56.965Z,19.10
2022-07-27T21:49:34.110Z,19.10
2022-07-27T21:52:01.908Z,19.10
2022-07-27T21:54:29.210Z,19.00
2022-07-27T21:56:56.192Z,19.00
2022-07-27T21:59:23.217Z,19.00
2022-07-27T22:01:50.281Z,18.90
2022-07-27T22:04:18.541Z,18.90
2022-07-27T22:06:45.739Z,18.90
2022-07-27T22:09:12.952Z,18.90
2022-07-27T22:11:40.103Z,18.90
2022-07-27T22:14:07.084Z,18.90
2022-07-27T22:16:34.158Z,18.80
2022-07-27T22:19:01.086Z,18.80
2022-07-27T22:21:29.084Z,18.80
2022-07-27T22:23:56.642Z,18.80
2022-07-27T22:26:23.654Z,18.80
2022-07-27T22:28:50.593Z,18.80
2022-07-27T22:31:21.848Z,18.70
2022-07-27T22:33:50.596Z,18.70
2022-07-27T22:36:17.561Z,18.70
2022-07-27T22:38:44.562Z,18.70
2022-07-27T22:41:11.427Z,18.60
2022-07-27T22:43:38.837Z,18.60
2022-07-27T22:46:06.406Z,18.60
2022-07-27T22:48:33.767Z,18.50
2022-07-27T22:51:00.770Z,18.50
2022-07-27T22:53:27.683Z,18.40
2022-07-27T22:55:54.802Z,18.40
2022-07-27T22:58:21.990Z,18.40
2022-07-27T23:00:49.188Z,18.40
2022-07-27T23:03:17.012Z,18.30
2022-07-27T23:05:44.150Z,18.30
2022-07-27T23:08:11.227Z,18.20
2022-07-27T23:10:47.312Z,18.20
2022-07-27T23:13:18.281Z,18.10
2022-07-27T23:15:45.715Z,18.10
2022-07-27T23:18:13.028Z,18.10
2022-07-27T23:20:40.930Z,18.10
2022-07-27T23:23:11.059Z,18.10
2022-07-27T23:25:42.909Z,18.00
2022-07-27T23:28:12.647Z,17.90
2022-07-27T23:30:39.629Z,17.90
2022-07-27T23:33:07.158Z,17.90
2022-07-27T23:35:34.435Z,17.90
2022-07-27T23:38:01.774Z,17.80
2022-07-27T23:40:28.836Z,17.80
2022-07-27T23:42:55.758Z,17.80
2022-07-27T23:45:22.708Z,17.70
2022-07-27T23:47:49.665Z,17.70
2022-07-27T23:50:16.796Z,17.70
2022-07-27T23:52:43.845Z,17.60
2022-07-27T23:55:11.196Z,17.70
2022-07-27T23:57:38.098Z,17.60
